Time;durP1;ratioP1;P1;durP2;ratioP2;P2;SDS_P1;SDS_P2;PMS_P1;PMS_P2;Temp;Humidity;BMP_temperature;BMP_pressure;BME280_temperature;BME280_humidity;BME280_pressure;Samples;Min_cycle;Max_cycle;Signal;HPM_P1;HPM_P2
2022/01/13 00:05:07;;;;;;;1999.90;999.90;;;;;;;6.53;74.28;103211.47;15631211;28;20056;-59
2022/01/13 00:12:43;;;;;;;1999.90;999.90;;;;;;;6.40;74.79;103205.34;15619966;28;20072;-57
2022/01/13 00:28:15;;;;;;;1999.90;999.90;;;;;;;6.42;74.95;103186.53;15630583;28;20037;-57
2022/01/13 00:36:00;;;;;;;1999.90;999.90;;;;;;;6.53;75.19;103164.28;15626334;28;20132;-58
2022/01/13 00:43:36;;;;;;;1999.90;999.90;;;;;;;6.27;75.74;103171.25;15589052;28;20040;-59
2022/01/13 00:51:23;;;;;;;1999.90;999.90;;;;;;;6.52;74.99;103182.03;15616531;28;20041;-57
2022/01/13 00:58:58;;;;;;;1999.90;999.90;;;;;;;6.60;74.69;103161.38;15631113;28;20065;-58
2022/01/13 01:06:36;;;;;;;1999.90;999.90;;;;;;;6.35;75.85;103129.25;15616205;28;20053;-59
2022/01/13 01:14:08;;;;;;;1999.90;999.90;;;;;;;6.13;76.90;103139.31;15653166;28;20457;-57
2022/01/13 01:29:50;;;;;;;1999.90;999.90;;;;;;;6.17;77.43;103146.09;15611733;28;20050;-59
2022/01/13 01:37:28;;;;;;;1999.90;999.90;;;;;;;6.23;76.83;103144.25;15605715;28;20045;-59
2022/01/13 01:45:05;;;;;;;1999.90;999.90;;;;;;;6.64;75.26;103138.44;15645621;28;20095;-59
2022/01/13 01:52:40;;;;;;;1999.90;999.90;;;;;;;6.65;75.53;103155.91;15648249;28;20037;-58
2022/01/13 02:00:16;;;;;;;1999.90;999.90;;;;;;;6.72;75.54;103142.75;15616547;28;20077;-60
2022/01/13 02:07:50;;;;;;;1999.90;999.90;;;;;;;6.40;76.28;103141.56;15633906;28;20073;-59
2022/01/13 02:15:32;;;;;;;1999.90;999.90;;;;;;;6.43;76.21;103149.38;15617402;28;20444;-58
2022/01/13 02:23:07;;;;;;;1999.90;999.90;;;;;;;6.56;75.80;103136.03;15658572;28;20489;-59
2022/01/13 02:30:41;;;;;;;1999.90;999.90;;;;;;;6.56;76.24;103115.78;15608828;28;20038;-58
2022/01/13 02:38:17;;;;;;;1999.90;999.90;;;;;;;6.82;75.15;103098.53;15641327;28;20045;-58
2022/01/13 02:46:07;;;;;;;1999.90;999.90;;;;;;;6.52;76.03;103109.91;15628025;28;20045;-57
2022/01/13 02:53:44;;;;;;;1999.90;999.90;;;;;;;6.68;75.77;103097.19;15605307;28;20107;-59
2022/01/13 03:01:17;;;;;;;1999.90;999.90;;;;;;;6.28;76.74;103089.75;15671907;28;20103;-60
2022/01/13 03:08:53;;;;;;;1999.90;999.90;;;;;;;6.66;76.08;103074.34;15639183;28;20041;-60
2022/01/13 03:16:28;;;;;;;1999.90;999.90;;;;;;;6.40;76.82;103069.44;15655339;28;20072;-59
2022/01/13 03:24:06;;;;;;;1999.90;999.90;;;;;;;6.56;75.80;103068.63;15613488;28;20049;-58
2022/01/13 03:31:39;;;;;;;1999.90;999.90;;;;;;;6.18;77.20;103067.34;15656536;28;20149;-59
2022/01/13 03:39:13;;;;;;;1999.90;999.90;;;;;;;6.11;77.94;103068.56;15640232;28;20103;-59
2022/01/13 03:46:46;;;;;;;1999.90;999.90;;;;;;;6.31;76.27;103055.97;15651563;28;20049;-58
2022/01/13 03:55:35;;;;;;;1999.90;999.90;;;;;;;6.16;77.14;103058.44;15648065;22;20048;-67
2022/01/13 04:03:08;;;;;;;1999.90;999.90;;;;;;;6.39;76.57;103063.06;15705794;28;20041;-66
2022/01/13 04:11:20;;;;;;;1999.90;999.90;;;;;;;6.32;77.22;103056.81;15697076;28;20043;-67
2022/01/13 04:19:00;;;;;;;1999.90;999.90;;;;;;;6.02;77.64;103046.78;15658298;28;20047;-67
2022/01/13 04:26:34;;;;;;;1999.90;999.90;;;;;;;6.10;77.88;103037.25;15672733;28;20041;-66
2022/01/13 04:34:07;;;;;;;1999.90;999.90;;;;;;;5.90;79.08;103034.03;15681369;28;20068;-66
2022/01/13 04:41:43;;;;;;;1999.90;999.90;;;;;;;6.11;77.73;103036.16;15689481;28;20049;-66
2022/01/13 04:49:18;;;;;;;1999.90;999.90;;;;;;;5.99;78.12;103024.28;15698640;28;20173;-67
2022/01/13 04:57:07;;;;;;;1999.90;999.90;;;;;;;5.89;79.15;103024.03;15683126;28;20079;-67
2022/01/13 05:04:42;;;;;;;1999.90;999.90;;;;;;;6.08;78.61;103028.34;15684038;28;20107;-67
2022/01/13 05:12:17;;;;;;;1999.90;999.90;;;;;;;6.16;78.08;103016.84;15636190;28;20148;-67
2022/01/13 05:20:09;;;;;;;1999.90;999.90;;;;;;;6.16;77.62;103016.03;15668746;28;20037;-65
2022/01/13 05:27:51;;;;;;;1999.90;999.90;;;;;;;5.98;79.01;103026.19;15665780;28;20385;-66
2022/01/13 05:35:25;;;;;;;1999.90;999.90;;;;;;;5.99;78.77;103021.50;15795134;22;20397;-66
2022/01/13 05:42:59;;;;;;;1999.90;999.90;;;;;;;5.87;78.95;103028.97;15676532;28;20064;-65
2022/01/13 05:50:32;;;;;;;1999.90;999.90;;;;;;;6.15;78.31;103037.38;15616351;28;20484;-65
2022/01/13 05:58:07;;;;;;;1999.90;999.90;;;;;;;5.72;79.65;103029.47;15615530;28;20535;-66
2022/01/13 06:05:39;;;;;;;1999.90;999.90;;;;;;;5.84;79.84;103030.31;15645828;28;20524;-64
2022/01/13 06:13:14;;;;;;;1999.90;999.90;;;;;;;6.00;79.31;103021.25;15628511;28;20041;-65
2022/01/13 06:20:49;;;;;;;1999.90;999.90;;;;;;;5.59;80.84;103008.44;15601527;28;20509;-65
2022/01/13 06:28:26;;;;;;;1999.90;999.90;;;;;;;5.58;80.67;103017.00;15641360;28;20549;-66
2022/01/13 06:36:07;;;;;;;1999.90;999.90;;;;;;;5.63;81.39;103019.88;15670312;28;20424;-67
2022/01/13 06:43:43;;;;;;;1999.90;999.90;;;;;;;5.85;80.22;103043.09;15625117;28;20129;-67
2022/01/13 06:51:16;;;;;;;1999.90;999.90;;;;;;;5.61;81.48;103052.50;15678733;28;20045;-66
2022/01/13 06:58:57;;;;;;;1999.90;999.90;;;;;;;6.07;80.13;103058.00;15687237;28;20041;-65
2022/01/13 07:06:33;;;;;;;1999.90;999.90;;;;;;;5.72;80.42;103043.34;15669795;28;20040;-66
2022/01/13 07:14:08;;;;;;;1999.90;999.90;;;;;;;5.77;81.58;103072.00;15651323;28;20312;-66
2022/01/13 07:21:42;;;;;;;1999.90;999.90;;;;;;;5.82;81.22;103062.13;15672458;28;20049;-65
2022/01/13 07:29:16;;;;;;;;;;;;;;;5.70;82.05;103049.13;15604907;28;20049;-66
2022/01/13 07:36:56;;;;;;;1999.90;999.90;;;;;;;5.85;82.01;103045.03;15621101;28;19928;-67
2022/01/13 07:44:39;;;;;;;1999.90;999.90;;;;;;;6.07;81.49;103074.63;15621058;28;20064;-67
2022/01/13 07:52:27;;;;;;;1999.90;999.90;;;;;;;5.87;81.30;103065.84;15606296;28;20038;-67
2022/01/13 08:00:05;;;;;;;1999.90;999.90;;;;;;;5.87;81.56;103051.16;15617210;28;20494;-67
2022/01/13 08:07:51;;;;;;;1999.90;999.90;;;;;;;5.76;82.12;103066.72;15600500;28;20494;-67
2022/01/13 08:15:43;;;;;;;1999.90;999.90;;;;;;;6.17;80.88;103079.53;15618435;28;20049;-65
2022/01/13 08:23:27;;;;;;;1999.90;999.90;;;;;;;6.06;81.32;103097.06;15617265;28;20048;-64
2022/01/13 08:31:04;;;;;;;1999.90;999.90;;;;;;;6.00;81.86;103103.56;15600563;28;20133;-67
2022/01/13 08:38:37;;;;;;;1999.90;999.90;;;;;;;5.78;82.32;103095.84;15618403;28;20525;-67
2022/01/13 08:46:18;;;;;;;1999.90;999.90;;;;;;;5.94;81.32;103079.59;15616811;28;20052;-66
2022/01/13 08:54:12;;;;;;;1999.90;999.90;;;;;;;6.03;81.78;103076.19;15616449;28;20041;-65
2022/01/13 09:01:49;;;;;;;1999.90;999.90;;;;;;;6.30;80.58;103086.72;15614682;28;20514;-66
2022/01/13 09:09:21;;;;;;;1999.90;999.90;;;;;;;6.16;80.70;103077.00;15614925;28;20038;-65
2022/01/13 09:16:57;;;;;;;1999.90;999.90;;;;;;;6.05;81.60;103068.50;15609337;28;20088;-66
2022/01/13 09:24:33;;;;;;;1999.90;999.90;;;;;;;6.03;81.13;103076.19;15617466;28;20103;-66
2022/01/13 09:32:27;;;;;;;1999.90;999.90;;;;;;;6.18;80.77;103070.13;15611106;28;20073;-67
2022/01/13 09:40:00;;;;;;;1999.90;999.90;;;;;;;6.27;79.94;103068.66;15617259;28;20517;-65
2022/01/13 09:47:39;;;;;;;1999.90;999.90;;;;;;;6.28;80.55;103070.34;15634713;28;20049;-66
2022/01/13 09:55:16;;;;;;;1999.90;999.90;;;;;;;6.01;81.77;103052.56;15709045;22;20140;-73
2022/01/13 10:03:11;;;;;;;1999.90;999.90;;;;;;;6.21;80.77;103057.69;15682660;28;20045;-72
2022/01/13 10:10:48;;;;;;;1999.90;999.90;;;;;;;6.45;79.62;103055.66;15645975;23;20099;-67
2022/01/13 10:18:41;;;;;;;1999.90;999.90;;;;;;;6.22;80.38;103051.91;15682442;28;20490;-65
2022/01/13 10:26:35;;;;;;;1999.90;999.90;;;;;;;6.14;80.95;103045.91;15687281;28;20045;-65
2022/01/13 10:34:27;;;;;;;1999.90;999.90;;;;;;;6.23;80.31;103045.25;15669188;28;20041;-67
2022/01/13 10:42:14;;;;;;;1999.90;999.90;;;;;;;6.12;80.97;103020.34;15668951;28;20060;-67
2022/01/13 10:49:52;;;;;;;1999.90;999.90;;;;;;;6.59;79.15;103024.59;15652646;28;20042;-67
2022/01/13 10:57:25;;;;;;;1999.90;999.90;;;;;;;6.20;80.14;103011.66;15625777;28;20045;-65
2022/01/13 11:05:13;;;;;;;1999.90;999.90;;;;;;;6.09;81.20;103005.06;15627315;28;20128;-66
2022/01/13 11:12:56;;;;;;;1999.90;999.90;;;;;;;6.49;79.06;103005.00;15626520;28;20038;-65
2022/01/13 11:20:30;;;;;;;1999.90;999.90;;;;;;;6.46;78.88;102997.19;15624835;28;20038;-65
2022/01/13 11:28:08;;;;;;;1999.90;999.90;;;;;;;6.45;79.36;102983.53;15627333;28;20482;-65
2022/01/13 11:35:55;;;;;;;1999.90;999.90;;;;;;;6.62;78.93;102982.47;15623189;28;20157;-65
2022/01/13 11:43:38;;;;;;;1999.90;999.90;;;;;;;6.43;79.35;102958.81;15608515;28;20132;-66
2022/01/13 11:51:20;;;;;;;1999.90;999.90;;;;;;;6.59;78.51;102943.31;15657782;28;20044;-65
2022/01/13 11:58:56;;;;;;;1999.90;999.90;;;;;;;6.75;78.71;102952.69;15684020;28;20049;-65
2022/01/13 12:06:37;;;;;;;1999.90;999.90;;;;;;;6.79;78.14;102956.66;15672442;28;20040;-65
2022/01/13 12:14:41;;;;;;;1999.90;999.90;;;;;;;7.16;76.90;102945.81;15687938;28;20041;-66
2022/01/13 12:22:23;;;;;;;1999.90;999.90;;;;;;;6.85;77.60;102956.47;15684583;28;20055;-66
2022/01/13 12:30:10;;;;;;;1999.90;999.90;;;;;;;7.26;76.44;102948.75;15681266;28;20509;-65
2022/01/13 12:37:59;;;;;;;1999.90;999.90;;;;;;;7.41;75.55;102948.97;15601123;28;20080;-66
2022/01/13 12:45:34;;;;;;;1999.90;999.90;;;;;;;7.18;75.76;102951.97;15618708;28;20481;-66
2022/01/13 12:53:14;;;;;;;1999.90;999.90;;;;;;;7.03;76.37;102948.97;15639310;28;20045;-65
2022/01/13 13:00:46;;;;;;;1999.90;999.90;;;;;;;7.41;75.26;102945.34;15659263;28;20053;-66
2022/01/13 13:08:25;;;;;;;1999.90;999.90;;;;;;;7.23;75.65;102933.44;15641276;28;20053;-68
2022/01/13 13:16:00;;;;;;;1999.90;999.90;;;;;;;6.95;76.23;102934.41;15616811;28;20103;-65
2022/01/13 13:23:37;;;;;;;1999.90;999.90;;;;;;;7.00;76.50;102930.91;15636090;28;20040;-65
2022/01/13 13:31:12;;;;;;;1999.90;999.90;;;;;;;7.53;74.24;102927.44;15676858;28;20049;-65
2022/01/13 13:38:52;;;;;;;1999.90;999.90;;;;;;;7.24;74.91;102925.94;15675598;28;20080;-66
2022/01/13 13:46:25;;;;;;;1999.90;999.90;;;;;;;7.38;74.40;102927.22;15659736;28;20137;-65
2022/01/13 13:54:13;;;;;;;1999.90;999.90;;;;;;;7.48;73.78;102912.63;15674690;28;20120;-65
2022/01/13 14:02:05;;;;;;;1999.90;999.90;;;;;;;7.42;73.55;102922.03;15620153;28;20037;-66
2022/01/13 14:09:42;;;;;;;1999.90;999.90;;;;;;;7.16;73.73;102930.00;15613238;28;20041;-66
2022/01/13 14:17:14;;;;;;;1999.90;999.90;;;;;;;7.40;73.09;102935.31;15606365;28;20060;-66
2022/01/13 14:24:53;;;;;;;1999.90;999.90;;;;;;;7.28;73.45;102921.53;15614777;28;20042;-66
2022/01/13 14:32:27;;;;;;;1999.90;999.90;;;;;;;7.57;73.00;102936.09;15623651;28;20041;-67
2022/01/13 14:40:09;;;;;;;1999.90;999.90;;;;;;;7.57;72.55;102932.47;15640355;28;20144;-68
2022/01/13 14:47:42;;;;;;;1999.90;999.90;;;;;;;7.55;72.55;102929.97;15624785;28;20049;-66
2022/01/13 14:55:16;;;;;;;1999.90;999.90;;;;;;;7.24;73.18;102931.50;15627355;28;20038;-66
2022/01/13 15:02:50;;;;;;;1999.90;999.90;;;;;;;7.28;72.72;102943.75;15624111;28;20056;-66
2022/01/13 15:10:28;;;;;;;1999.90;999.90;;;;;;;7.41;73.00;102946.19;15622243;28;20045;-66
2022/01/13 15:18:07;;;;;;;1999.90;999.90;;;;;;;7.24;73.59;102943.44;15650783;28;20140;-67
2022/01/13 15:25:50;;;;;;;1999.90;999.90;;;;;;;7.36;72.60;102939.72;15625493;28;20494;-67
2022/01/13 15:33:23;;;;;;;1999.90;999.90;;;;;;;7.34;72.37;102950.25;15620424;28;20049;-66
2022/01/13 15:41:05;;;;;;;1999.90;999.90;;;;;;;7.02;73.27;102936.19;15646533;28;20122;-66
2022/01/13 15:48:38;;;;;;;1999.90;999.90;;;;;;;7.11;73.08;102959.66;15683292;28;20065;-67
2022/01/13 15:56:13;;;;;;;1999.90;999.90;;;;;;;6.99;73.39;102948.66;15662264;28;20045;-68
2022/01/13 16:03:48;;;;;;;1999.90;999.90;;;;;;;7.10;73.14;102944.09;15615638;28;20046;-65
2022/01/13 16:11:37;;;;;;;1999.90;999.90;;;;;;;7.10;73.12;102953.25;15585863;28;20052;-69
2022/01/13 16:19:11;;;;;;;1999.90;999.90;;;;;;;7.32;72.40;102958.00;15645106;28;20487;-67
2022/01/13 16:26:57;;;;;;;1999.90;999.90;;;;;;;7.46;72.37;102957.34;15589797;28;20045;-65
2022/01/13 16:34:43;;;;;;;1999.90;999.90;;;;;;;7.42;72.02;102956.19;15613923;28;20490;-65
2022/01/13 16:42:21;;;;;;;1999.90;999.90;;;;;;;7.29;72.16;102950.16;15583471;28;20414;-64
2022/01/13 16:50:00;;;;;;;1999.90;999.90;;;;;;;7.15;72.44;102952.47;15557714;28;20038;-65
2022/01/13 16:57:37;;;;;;;1999.90;999.90;;;;;;;7.11;72.95;102951.31;15554537;28;20060;-64
2022/01/13 17:05:13;;;;;;;1999.90;999.90;;;;;;;7.44;71.63;102947.59;15559117;28;20048;-65
2022/01/13 17:12:49;;;;;;;1999.90;999.90;;;;;;;7.00;72.59;102947.56;15638932;28;20457;-65
2022/01/13 17:20:23;;;;;;;1999.90;999.90;;;;;;;7.00;72.96;102933.69;15640736;28;20506;-64
2022/01/13 17:28:07;;;;;;;1999.90;999.90;;;;;;;7.14;72.31;102929.44;15659477;28;20095;-65
2022/01/13 17:35:43;;;;;;;1999.90;999.90;;;;;;;7.14;72.18;102914.69;15615486;28;20049;-65
2022/01/13 17:43:18;;;;;;;1999.90;999.90;;;;;;;6.90;72.82;102908.53;15616976;28;20049;-66
2022/01/13 17:50:53;;;;;;;1999.90;999.90;;;;;;;6.79;73.23;102902.00;15668425;28;20548;-64
2022/01/13 17:58:33;;;;;;;1999.90;999.90;;;;;;;7.04;73.10;102895.13;15666529;28;20078;-61
2022/01/13 18:06:12;;;;;;;1999.90;999.90;;;;;;;6.80;73.57;102900.06;15632691;28;20045;-62
2022/01/13 18:13:47;;;;;;;1999.90;999.90;;;;;;;7.23;72.43;102896.50;15568409;28;20157;-62
2022/01/13 18:21:22;;;;;;;1999.90;999.90;;;;;;;7.01;73.18;102893.72;15643543;28;20038;-62
2022/01/13 18:28:56;;;;;;;1999.90;999.90;;;;;;;7.18;72.85;102891.69;15617751;28;20038;-65
2022/01/13 18:36:35;;;;;;;1999.90;999.90;;;;;;;7.52;72.11;102905.47;15648172;28;20060;-64
2022/01/13 18:44:26;;;;;;;1999.90;999.90;;;;;;;7.14;73.55;102904.44;15609664;28;20041;-64
2022/01/13 18:52:12;;;;;;;1999.90;999.90;;;;;;;7.41;73.18;102904.53;15627189;28;20048;-63
2022/01/13 18:59:46;;;;;;;1999.90;999.90;;;;;;;7.23;73.46;102899.28;15638962;28;20053;-64
2022/01/13 19:07:20;;;;;;;1999.90;999.90;;;;;;;7.23;73.60;102893.72;15608428;28;20038;-66
2022/01/13 19:15:02;;;;;;;1999.90;999.90;;;;;;;7.89;72.45;102886.16;15610785;28;20065;-66
2022/01/13 19:22:34;;;;;;;1999.90;999.90;;;;;;;7.63;72.43;102887.00;15659048;28;20496;-67
2022/01/13 19:30:12;;;;;;;1999.90;999.90;;;;;;;7.47;73.40;102881.25;15632537;28;20118;-64
2022/01/13 19:37:45;;;;;;;1999.90;999.90;;;;;;;7.36;73.75;102892.50;15611475;28;20165;-66
2022/01/13 19:45:20;;;;;;;1999.90;999.90;;;;;;;7.28;73.89;102876.28;15619265;28;20045;-67
2022/01/13 19:52:55;;;;;;;1999.90;999.90;;;;;;;7.53;73.24;102866.31;15617313;28;20406;-68
2022/01/13 20:00:32;;;;;;;1999.90;999.90;;;;;;;7.19;74.83;102859.22;15617718;28;20080;-65
2022/01/13 20:08:08;;;;;;;1999.90;999.90;;;;;;;7.51;73.50;102848.25;15627941;28;20061;-63
2022/01/13 20:15:43;;;;;;;1999.90;999.90;;;;;;;7.22;74.40;102837.34;15613204;28;20037;-64
2022/01/13 20:23:23;;;;;;;1999.90;999.90;;;;;;;7.09;74.17;102832.19;15606781;28;20072;-67
2022/01/13 20:31:17;;;;;;;1999.90;999.90;;;;;;;7.17;73.81;102840.03;15623907;28;20117;-65
2022/01/13 20:38:51;;;;;;;1999.90;999.90;;;;;;;6.78;74.52;102847.59;15605865;28;20434;-67
2022/01/13 20:46:25;;;;;;;;;;;;;;;6.83;73.41;102836.53;15598966;28;20052;-65
2022/01/13 20:53:58;;;;;;;1999.90;999.90;;;;;;;7.07;72.35;102839.06;15615943;23;19983;-63
2022/01/13 21:01:33;;;;;;;1999.90;999.90;;;;;;;7.33;71.76;102827.19;15609767;28;20136;-64
2022/01/13 21:09:32;;;;;;;1999.90;999.90;;;;;;;6.87;72.50;102809.09;15566023;28;20052;-68
2022/01/13 21:17:15;;;;;;;1999.90;999.90;;;;;;;6.99;72.44;102797.91;15530882;28;20070;-62
2022/01/13 21:24:48;;;;;;;1999.90;999.90;;;;;;;7.10;71.91;102796.94;15728188;22;20064;-67
2022/01/13 21:32:24;;;;;;;1999.90;999.90;;;;;;;7.21;71.70;102805.13;15656929;28;20060;-67
2022/01/13 21:40:18;;;;;;;1999.90;999.90;;;;;;;6.95;72.77;102801.19;15747037;22;20112;-63
2022/01/13 21:47:53;;;;;;;1999.90;999.90;;;;;;;6.84;73.56;102785.50;15605094;28;20045;-65
2022/01/13 21:55:26;;;;;;;1999.90;999.90;;;;;;;6.80;73.64;102772.41;15591181;28;20441;-64
2022/01/13 22:03:03;;;;;;;1999.90;999.90;;;;;;;6.88;73.68;102758.91;15595037;28;20042;-64
2022/01/13 22:10:36;;;;;;;1999.90;999.90;;;;;;;6.99;73.38;102773.75;15610431;28;20052;-63
2022/01/13 22:18:10;;;;;;;1999.90;999.90;;;;;;;6.78;73.94;102775.44;15612647;28;20055;-64
2022/01/13 22:25:43;;;;;;;1999.90;999.90;;;;;;;7.30;72.79;102768.56;15595833;28;20056;-63
2022/01/13 22:33:18;;;;;;;1999.90;999.90;;;;;;;7.25;72.99;102752.66;15614623;28;20407;-64
2022/01/13 22:40:53;;;;;;;1999.90;999.90;;;;;;;7.06;73.59;102756.88;15621880;28;20076;-63
2022/01/13 22:48:39;;;;;;;1999.90;999.90;;;;;;;7.11;73.68;102752.25;15619695;28;20495;-64
2022/01/13 22:56:14;;;;;;;1999.90;999.90;;;;;;;7.06;73.92;102746.63;15580716;28;20281;-64
2022/01/13 23:04:08;;;;;;;1999.90;999.90;;;;;;;7.39;73.38;102736.41;15621665;28;20034;-64
2022/01/13 23:11:44;;;;;;;1999.90;999.90;;;;;;;7.03;74.21;102729.66;15591779;28;20107;-63
2022/01/13 23:27:08;;;;;;;1999.90;999.90;;;;;;;7.06;74.15;102716.06;15600076;28;20050;-63
2022/01/13 23:34:48;;;;;;;1999.90;999.90;;;;;;;7.41;73.79;102712.84;15620192;28;20849;-64
2022/01/13 23:42:52;;;;;;;1999.90;999.90;;;;;;;7.17;74.12;102694.81;15621430;28;20310;-64
2022/01/13 23:50:28;;;;;;;1999.90;999.90;;;;;;;7.06;74.68;102690.25;15620508;28;20053;-64
2022/01/13 23:58:03;;;;;;;1999.90;999.90;;;;;;;7.40;73.51;102682.53;15620130;28;20046;-63
